Time;durP1;ratioP1;P1;durP2;ratioP2;P2;SDS_P1;SDS_P2;PMS_P1;PMS_P2;Temp;Humidity;BMP_temperature;BMP_pressure;BME280_temperature;BME280_humidity;BME280_pressure;Samples;Min_cycle;Max_cycle;Signal;HPM_P1;HPM_P2
2023/12/14 00:01:20;;;;;;;2.67;1.70;;;;;;;;;;6305195;22;20232;-78
2023/12/14 00:03:47;;;;;;;3.97;1.80;;;;;;;;;;6304737;22;20201;-78
2023/12/14 00:06:14;;;;;;;5.03;1.57;;;;;;;;;;6305582;22;20170;-77
2023/12/14 00:08:42;;;;;;;2.53;1.17;;;;;;;;;;6304832;22;20193;-78
2023/12/14 00:11:11;;;;;;;3.17;1.20;;;;;;;;;;6305558;22;20173;-77
2023/12/14 00:13:38;;;;;;;6.07;1.40;;;;;;;;;;6305513;22;20170;-77
2023/12/14 00:16:06;;;;;;;5.43;1.53;;;;;;;;;;6304908;22;20170;-77
2023/12/14 00:18:33;;;;;;;1.97;1.33;;;;;;;;;;6305184;22;20252;-77
2023/12/14 00:21:00;;;;;;;3.20;1.40;;;;;;;;;;6305299;22;20173;-78
2023/12/14 00:23:27;;;;;;;4.00;1.33;;;;;;;;;;6304653;22;20197;-77
2023/12/14 00:25:55;;;;;;;3.83;1.93;;;;;;;;;;6304968;22;20197;-77
2023/12/14 00:28:23;;;;;;;5.67;1.60;;;;;;;;;;6305579;22;20201;-77
2023/12/14 00:30:50;;;;;;;3.47;1.30;;;;;;;;;;6304907;22;20632;-77
2023/12/14 00:33:17;;;;;;;5.00;1.40;;;;;;;;;;6304718;22;20197;-78
2023/12/14 00:35:45;;;;;;;5.87;1.40;;;;;;;;;;6305213;22;20204;-78
2023/12/14 00:38:12;;;;;;;3.57;1.20;;;;;;;;;;6304858;22;20198;-77
2023/12/14 00:40:39;;;;;;;3.70;1.20;;;;;;;;;;6305307;22;20253;-78
2023/12/14 00:43:06;;;;;;;5.87;1.40;;;;;;;;;;6306704;22;20201;-77
2023/12/14 00:45:35;;;;;;;4.80;1.27;;;;;;;;;;6307529;22;20252;-77
2023/12/14 00:48:02;;;;;;;4.10;1.70;;;;;;;;;;6307713;22;20204;-77
2023/12/14 00:50:29;;;;;;;6.97;1.80;;;;;;;;;;6306530;22;20201;-77
2023/12/14 00:52:56;;;;;;;4.07;1.63;;;;;;;;;;6306810;22;20208;-77
2023/12/14 00:55:23;;;;;;;5.40;1.87;;;;;;;;;;6306812;22;20176;-77
2023/12/14 00:57:51;;;;;;;7.60;1.93;;;;;;;;;;6306875;22;20237;-77
2023/12/14 01:00:18;;;;;;;6.60;1.63;;;;;;;;;;6306527;22;20580;-77
2023/12/14 01:02:47;;;;;;;5.47;2.07;;;;;;;;;;6307458;22;20250;-77
2023/12/14 01:05:14;;;;;;;3.30;1.60;;;;;;;;;;6307092;22;20202;-78
2023/12/14 01:07:41;;;;;;;5.13;1.87;;;;;;;;;;6306231;22;20181;-77
2023/12/14 01:10:09;;;;;;;6.27;1.60;;;;;;;;;;6306871;22;20612;-77
2023/12/14 01:12:36;;;;;;;4.50;1.73;;;;;;;;;;6306915;22;20190;-78
2023/12/14 01:15:03;;;;;;;4.23;1.50;;;;;;;;;;6307533;22;20252;-77
2023/12/14 01:17:30;;;;;;;3.27;1.50;;;;;;;;;;6307115;22;20225;-77
2023/12/14 01:19:59;;;;;;;3.43;1.70;;;;;;;;;;6306527;22;20228;-77
2023/12/14 01:22:25;;;;;;;5.70;1.60;;;;;;;;;;6306929;22;20197;-78
2023/12/14 01:24:52;;;;;;;4.07;1.37;;;;;;;;;;6306489;22;20180;-77
2023/12/14 01:27:19;;;;;;;3.27;1.40;;;;;;;;;;6306899;22;20249;-78
2023/12/14 01:29:47;;;;;;;2.23;1.30;;;;;;;;;;6306899;22;20204;-77
2023/12/14 01:32:14;;;;;;;3.17;1.30;;;;;;;;;;6306903;22;20245;-77
2023/12/14 01:34:41;;;;;;;6.00;1.70;;;;;;;;;;6306884;22;20201;-78
2023/12/14 01:37:09;;;;;;;3.97;1.40;;;;;;;;;;6306576;22;20225;-78
2023/12/14 01:39:37;;;;;;;3.73;1.50;;;;;;;;;;6306741;22;20249;-77
2023/12/14 01:42:04;;;;;;;3.13;1.40;;;;;;;;;;6307156;22;20541;-77
2023/12/14 01:44:31;;;;;;;6.37;1.30;;;;;;;;;;6307046;22;20169;-78
2023/12/14 01:46:58;;;;;;;4.00;1.30;;;;;;;;;;6306515;22;20253;-76
2023/12/14 01:49:25;;;;;;;3.33;1.13;;;;;;;;;;6306204;22;20177;-77
2023/12/14 01:51:52;;;;;;;3.43;1.40;;;;;;;;;;6306530;22;20211;-77
2023/12/14 01:54:21;;;;;;;3.40;1.40;;;;;;;;;;6305970;22;20201;-77
2023/12/14 01:56:48;;;;;;;2.30;1.10;;;;;;;;;;6306679;22;20190;-77
2023/12/14 01:59:15;;;;;;;2.43;1.00;;;;;;;;;;6306240;22;20257;-77
2023/12/14 02:01:44;;;;;;;3.40;1.30;;;;;;;;;;6306477;22;20200;-78
2023/12/14 02:04:11;;;;;;;2.47;1.00;;;;;;;;;;6305852;22;20632;-76
2023/12/14 02:06:39;;;;;;;5.20;1.60;;;;;;;;;;6306247;22;20648;-77
2023/12/14 02:09:05;;;;;;;2.80;0.90;;;;;;;;;;6306474;22;20555;-78
2023/12/14 02:11:33;;;;;;;1.60;0.90;;;;;;;;;;6307089;22;20173;-77
2023/12/14 02:14:05;;;;;;;3.87;1.07;;;;;;;;;;6306056;22;20200;-78
2023/12/14 02:16:32;;;;;;;3.70;0.90;;;;;;;;;;6306621;22;20166;-77
2023/12/14 02:18:59;;;;;;;4.77;0.97;;;;;;;;;;6305276;22;20198;-78
2023/12/14 02:21:26;;;;;;;1.90;1.00;;;;;;;;;;6305656;22;20708;-77
2023/12/14 02:23:55;;;;;;;3.13;1.00;;;;;;;;;;6305832;22;20262;-77
2023/12/14 02:26:22;;;;;;;1.57;0.90;;;;;;;;;;6306458;22;20193;-76
2023/12/14 02:28:49;;;;;;;1.93;1.00;;;;;;;;;;6306041;22;20205;-77
2023/12/14 02:31:17;;;;;;;1.97;0.93;;;;;;;;;;6305848;22;20206;-78
2023/12/14 02:33:44;;;;;;;3.50;0.90;;;;;;;;;;6305700;22;20198;-78
2023/12/14 02:36:11;;;;;;;1.97;0.90;;;;;;;;;;6306713;22;20166;-78
2023/12/14 02:38:38;;;;;;;2.20;0.90;;;;;;;;;;6305892;22;20296;-77
2023/12/14 02:41:07;;;;;;;2.80;1.00;;;;;;;;;;6306287;22;20201;-77
2023/12/14 02:43:34;;;;;;;2.10;1.07;;;;;;;;;;6305704;22;20653;-77
2023/12/14 02:46:02;;;;;;;4.70;1.30;;;;;;;;;;6305736;22;20253;-77
2023/12/14 02:48:30;;;;;;;3.83;1.30;;;;;;;;;;6305439;22;20177;-78
2023/12/14 02:50:59;;;;;;;3.00;1.07;;;;;;;;;;6306031;22;20172;-77
2023/12/14 02:53:26;;;;;;;5.03;1.23;;;;;;;;;;6305439;22;20173;-78
2023/12/14 02:55:54;;;;;;;3.20;1.10;;;;;;;;;;6305674;22;20579;-78
2023/12/14 02:58:22;;;;;;;3.17;1.10;;;;;;;;;;6305812;22;20734;-77
2023/12/14 03:00:49;;;;;;;3.57;1.40;;;;;;;;;;6305804;22;20280;-77
2023/12/14 03:03:17;;;;;;;4.50;1.40;;;;;;;;;;6305086;22;20227;-77
2023/12/14 03:05:44;;;;;;;4.50;1.20;;;;;;;;;;6306204;22;20170;-78
2023/12/14 03:08:11;;;;;;;2.87;1.10;;;;;;;;;;6305995;22;20249;-76
2023/12/14 03:10:38;;;;;;;3.27;1.20;;;;;;;;;;6306283;22;20248;-77
2023/12/14 03:13:05;;;;;;;2.33;1.23;;;;;;;;;;6305568;22;20687;-78
2023/12/14 03:15:34;;;;;;;4.60;1.40;;;;;;;;;;6306088;22;20212;-78
2023/12/14 03:18:01;;;;;;;4.60;1.23;;;;;;;;;;6305150;22;20671;-77
2023/12/14 03:20:28;;;;;;;3.67;1.30;;;;;;;;;;6305478;22;20189;-78
2023/12/14 03:22:55;;;;;;;5.13;1.50;;;;;;;;;;6305748;22;20273;-77
2023/12/14 03:25:22;;;;;;;3.40;1.30;;;;;;;;;;6305410;22;20635;-77
2023/12/14 03:27:49;;;;;;;3.90;1.47;;;;;;;;;;6305628;22;20166;-77
2023/12/14 03:30:17;;;;;;;4.17;1.27;;;;;;;;;;6305858;22;20193;-78
2023/12/14 03:32:45;;;;;;;5.73;1.40;;;;;;;;;;6305125;22;20197;-77
2023/12/14 03:35:12;;;;;;;3.77;1.60;;;;;;;;;;6305430;22;20257;-78
2023/12/14 03:37:39;;;;;;;5.23;1.30;;;;;;;;;;6305698;22;20276;-77
2023/12/14 03:40:07;;;;;;;5.77;1.70;;;;;;;;;;6305365;22;20253;-77
2023/12/14 03:42:35;;;;;;;5.33;1.50;;;;;;;;;;6305636;22;20200;-77
2023/12/14 03:45:02;;;;;;;7.13;1.63;;;;;;;;;;6304943;22;20173;-78
2023/12/14 03:47:29;;;;;;;6.27;1.33;;;;;;;;;;6304915;22;20170;-77
2023/12/14 03:49:57;;;;;;;3.30;1.27;;;;;;;;;;6305603;22;20188;-78
2023/12/14 03:52:25;;;;;;;7.27;1.30;;;;;;;;;;6305352;22;20204;-77
2023/12/14 03:54:52;;;;;;;5.00;1.20;;;;;;;;;;6305812;22;20199;-78
2023/12/14 03:57:19;;;;;;;3.80;1.30;;;;;;;;;;6305853;22;20193;-77
2023/12/14 03:59:47;;;;;;;6.20;1.60;;;;;;;;;;6304713;22;20248;-78
2023/12/14 04:02:14;;;;;;;4.23;1.50;;;;;;;;;;6304845;22;20702;-77
2023/12/14 04:04:41;;;;;;;5.87;2.00;;;;;;;;;;6304945;22;20644;-78
2023/12/14 04:07:09;;;;;;;6.77;1.70;;;;;;;;;;6305534;22;20500;-77
2023/12/14 04:09:37;;;;;;;6.23;1.60;;;;;;;;;;6305184;22;20245;-78
2023/12/14 04:12:04;;;;;;;6.03;1.70;;;;;;;;;;6305532;22;20249;-77
2023/12/14 04:14:31;;;;;;;5.17;1.57;;;;;;;;;;6304815;22;20249;-77
2023/12/14 04:16:57;;;;;;;7.30;1.90;;;;;;;;;;6304727;22;20198;-78
2023/12/14 04:19:25;;;;;;;6.33;1.97;;;;;;;;;;6304963;22;20197;-76
2023/12/14 04:21:52;;;;;;;4.63;1.70;;;;;;;;;;6305226;22;20509;-77
2023/12/14 04:24:22;;;;;;;10.63;1.93;;;;;;;;;;6305714;22;20501;-78
2023/12/14 04:26:49;;;;;;;5.43;1.60;;;;;;;;;;6305215;22;20508;-77
2023/12/14 04:29:16;;;;;;;5.00;1.77;;;;;;;;;;6304559;22;20687;-78
2023/12/14 04:31:43;;;;;;;6.87;1.77;;;;;;;;;;6304883;22;20702;-78
2023/12/14 04:34:15;;;;;;;6.87;1.90;;;;;;;;;;6305156;22;20170;-77
2023/12/14 04:36:42;;;;;;;4.07;1.63;;;;;;;;;;6305898;22;20172;-77
2023/12/14 04:39:09;;;;;;;4.53;1.40;;;;;;;;;;6304984;22;20232;-78
2023/12/14 04:41:37;;;;;;;4.57;1.77;;;;;;;;;;6304891;22;20197;-78
2023/12/14 04:44:05;;;;;;;6.87;1.73;;;;;;;;;;6305014;22;20226;-78
2023/12/14 04:46:32;;;;;;;4.00;1.77;;;;;;;;;;6305403;22;20208;-78
2023/12/14 04:48:59;;;;;;;4.20;1.40;;;;;;;;;;6304905;22;20170;-78
2023/12/14 04:51:27;;;;;;;7.30;1.73;;;;;;;;;;6305265;22;20245;-78
2023/12/14 04:53:54;;;;;;;4.47;1.87;;;;;;;;;;6305217;22;20286;-77
2023/12/14 04:56:21;;;;;;;7.70;1.73;;;;;;;;;;6305125;22;20198;-78
2023/12/14 04:58:50;;;;;;;5.23;2.20;;;;;;;;;;6304467;22;20220;-77
2023/12/14 05:01:17;;;;;;;7.90;2.20;;;;;;;;;;6305010;22;20553;-78
2023/12/14 05:03:44;;;;;;;6.50;1.50;;;;;;;;;;6304474;22;20707;-76
2023/12/14 05:06:11;;;;;;;6.77;1.60;;;;;;;;;;6305424;22;20647;-78
2023/12/14 05:08:38;;;;;;;5.77;1.90;;;;;;;;;;6305179;22;20584;-78
2023/12/14 05:11:06;;;;;;;4.73;1.90;;;;;;;;;;6305024;22;20228;-78
2023/12/14 05:13:33;;;;;;;5.97;1.67;;;;;;;;;;6304489;22;20257;-78
2023/12/14 05:16:01;;;;;;;7.07;1.40;;;;;;;;;;6304871;22;20174;-77
2023/12/14 05:18:29;;;;;;;7.57;2.43;;;;;;;;;;6304839;22;20201;-78
2023/12/14 05:20:56;;;;;;;5.57;2.20;;;;;;;;;;6305499;22;20202;-77
2023/12/14 05:23:24;;;;;;;5.03;1.83;;;;;;;;;;6305204;22;20166;-77
2023/12/14 05:25:51;;;;;;;6.03;1.80;;;;;;;;;;6304354;22;20628;-78
2023/12/14 05:28:18;;;;;;;8.27;2.57;;;;;;;;;;6304942;22;20193;-77
2023/12/14 05:30:46;;;;;;;10.30;2.40;;;;;;;;;;6307445;22;20217;-77
2023/12/14 05:33:14;;;;;;;6.43;2.57;;;;;;;;;;6306248;22;20842;-78
2023/12/14 05:35:41;;;;;;;5.90;2.43;;;;;;;;;;6306957;22;20253;-78
2023/12/14 05:38:08;;;;;;;9.10;2.63;;;;;;;;;;6306498;22;20194;-77
2023/12/14 05:40:36;;;;;;;7.97;2.60;;;;;;;;;;6306199;22;20253;-77
2023/12/14 05:43:03;;;;;;;9.33;2.30;;;;;;;;;;6306111;22;20200;-77
2023/12/14 05:45:30;;;;;;;5.80;2.50;;;;;;;;;;6306597;22;20185;-78
2023/12/14 05:47:58;;;;;;;5.17;2.60;;;;;;;;;;6306415;22;20245;-78
2023/12/14 05:50:26;;;;;;;5.17;2.53;;;;;;;;;;6306621;22;20196;-78
2023/12/14 05:52:53;;;;;;;5.90;2.50;;;;;;;;;;6306343;22;20197;-78
2023/12/14 05:55:21;;;;;;;9.33;3.20;;;;;;;;;;6306665;22;20405;-78
2023/12/14 05:57:48;;;;;;;11.50;3.13;;;;;;;;;;6306596;22;20545;-77
2023/12/14 06:00:16;;;;;;;7.87;3.03;;;;;;;;;;6305781;22;20193;-78
2023/12/14 06:02:43;;;;;;;9.43;3.17;;;;;;;;;;6306699;22;20215;-77
2023/12/14 06:05:10;;;;;;;4.60;2.10;;;;;;;;;;6306380;22;20239;-79
2023/12/14 06:07:39;;;;;;;6.87;2.27;;;;;;;;;;6306459;22;20169;-77
2023/12/14 06:10:06;;;;;;;5.50;2.20;;;;;;;;;;6305979;22;20197;-78
2023/12/14 06:12:34;;;;;;;6.30;2.20;;;;;;;;;;6306360;22;20197;-78
2023/12/14 06:15:01;;;;;;;9.03;2.80;;;;;;;;;;6306154;22;20209;-78
2023/12/14 06:17:28;;;;;;;6.50;2.87;;;;;;;;;;6306725;22;20170;-78
2023/12/14 06:19:55;;;;;;;5.67;3.37;;;;;;;;;;6305236;22;20823;-78
2023/12/14 06:22:22;;;;;;;7.77;3.47;;;;;;;;;;6306298;22;20252;-78
2023/12/14 06:24:51;;;;;;;7.53;4.30;;;;;;;;;;6306056;22;20205;-78
2023/12/14 06:27:18;;;;;;;8.27;4.57;;;;;;;;;;6305974;22;20281;-77
2023/12/14 06:29:45;;;;;;;8.57;4.90;;;;;;;;;;6306283;22;20256;-78
2023/12/14 06:32:12;;;;;;;8.67;4.00;;;;;;;;;;6306261;22;20177;-78
2023/12/14 06:34:39;;;;;;;8.00;3.80;;;;;;;;;;6306087;22;20257;-78
2023/12/14 06:37:07;;;;;;;4.90;3.17;;;;;;;;;;6305990;22;20197;-77
2023/12/14 06:39:34;;;;;;;6.63;3.20;;;;;;;;;;6305180;22;20236;-77
2023/12/14 06:42:02;;;;;;;4.50;2.70;;;;;;;;;;6306186;22;20197;-77
2023/12/14 06:44:30;;;;;;;8.27;2.90;;;;;;;;;;6306625;22;20170;-77
2023/12/14 06:46:58;;;;;;;6.13;2.60;;;;;;;;;;6305171;22;20166;-78
2023/12/14 06:49:25;;;;;;;6.30;2.90;;;;;;;;;;6304985;22;20174;-78
2023/12/14 06:51:52;;;;;;;7.03;2.53;;;;;;;;;;6305785;22;20244;-78
2023/12/14 06:54:19;;;;;;;5.40;2.70;;;;;;;;;;6305920;22;20248;-77
2023/12/14 06:56:47;;;;;;;10.03;3.70;;;;;;;;;;6306217;22;20172;-78
2023/12/14 06:59:16;;;;;;;9.50;4.40;;;;;;;;;;6305978;22;20239;-78
2023/12/14 07:01:43;;;;;;;10.63;4.23;;;;;;;;;;6306233;22;20167;-78
2023/12/14 07:04:11;;;;;;;16.53;4.63;;;;;;;;;;6305757;22;20675;-78
2023/12/14 07:06:38;;;;;;;12.93;5.23;;;;;;;;;;6305981;22;20244;-80
2023/12/14 07:09:05;;;;;;;14.50;8.50;;;;;;;;;;6305433;22;20231;-80
2023/12/14 07:11:32;;;;;;;19.47;11.63;;;;;;;;;;6306177;22;20206;-79
2023/12/14 07:13:59;;;;;;;13.17;8.10;;;;;;;;;;6277776;22;20241;-80
2023/12/14 07:16:28;;;;;;;10.43;7.47;;;;;;;;;;6303919;22;20162;-80
2023/12/14 07:18:55;;;;;;;13.23;6.53;;;;;;;;;;6304468;22;20228;-79
2023/12/14 07:21:22;;;;;;;9.90;5.13;;;;;;;;;;6304832;22;20711;-80
2023/12/14 07:23:49;;;;;;;9.33;4.40;;;;;;;;;;6304359;22;20166;-81
2023/12/14 07:26:16;;;;;;;7.40;3.97;;;;;;;;;;6304263;22;20194;-80
2023/12/14 07:28:44;;;;;;;7.97;4.33;;;;;;;;;;6305462;22;20253;-80
2023/12/14 07:31:11;;;;;;;9.30;4.40;;;;;;;;;;6304084;22;20682;-80
2023/12/14 07:33:39;;;;;;;17.50;8.77;;;;;;;;;;6304199;22;20213;-80
2023/12/14 07:36:07;;;;;;;19.03;10.37;;;;;;;;;;6304596;22;20252;-79
2023/12/14 07:38:34;;;;;;;16.87;9.33;;;;;;;;;;6303704;22;20485;-79
2023/12/14 07:41:01;;;;;;;19.30;7.67;;;;;;;;;;6303920;22;20205;-79
2023/12/14 07:43:28;;;;;;;15.87;8.03;;;;;;;;;;6305151;22;20226;-77
2023/12/14 07:45:55;;;;;;;16.67;6.80;;;;;;;;;;6304607;22;20223;-79
2023/12/14 07:48:23;;;;;;;12.87;5.97;;;;;;;;;;6305008;22;20559;-80
2023/12/14 07:50:52;;;;;;;13.20;6.33;;;;;;;;;;6305039;22;20719;-79
2023/12/14 07:53:18;;;;;;;13.73;6.87;;;;;;;;;;6304676;22;20170;-80
2023/12/14 07:55:45;;;;;;;14.37;5.80;;;;;;;;;;6304835;22;20743;-79
2023/12/14 07:58:13;;;;;;;11.17;5.17;;;;;;;;;;6305511;22;20230;-80
2023/12/14 08:00:40;;;;;;;8.37;5.63;;;;;;;;;;6304654;22;20292;-80
2023/12/14 08:03:07;;;;;;;8.77;5.50;;;;;;;;;;6305019;22;20248;-79
2023/12/14 08:05:34;;;;;;;10.40;4.73;;;;;;;;;;6304898;22;20181;-80
2023/12/14 08:08:03;;;;;;;9.93;4.10;;;;;;;;;;6305201;22;20194;-80
2023/12/14 08:10:30;;;;;;;9.37;4.13;;;;;;;;;;6304777;22;20227;-80
2023/12/14 08:12:57;;;;;;;9.37;4.60;;;;;;;;;;6304783;22;20189;-81
2023/12/14 08:15:24;;;;;;;7.83;4.17;;;;;;;;;;6304377;22;20197;-81
2023/12/14 08:17:51;;;;;;;12.13;4.83;;;;;;;;;;6304415;22;20208;-80
2023/12/14 08:20:19;;;;;;;14.17;4.87;;;;;;;;;;6304986;22;20236;-79
2023/12/14 08:22:46;;;;;;;10.50;4.60;;;;;;;;;;6304681;22;20174;-80
2023/12/14 08:25:15;;;;;;;8.10;4.40;;;;;;;;;;6304859;22;20208;-80
2023/12/14 08:27:43;;;;;;;8.17;4.30;;;;;;;;;;6304349;22;20196;-80
2023/12/14 08:30:11;;;;;;;13.70;7.23;;;;;;;;;;6305035;22;20215;-79
2023/12/14 08:32:39;;;;;;;23.10;13.70;;;;;;;;;;6304519;22;20244;-79
2023/12/14 08:35:06;;;;;;;19.90;12.13;;;;;;;;;;6304241;22;20253;-80
2023/12/14 08:37:34;;;;;;;14.43;9.47;;;;;;;;;;6305238;22;20253;-80
2023/12/14 08:40:01;;;;;;;9.40;6.67;;;;;;;;;;6304292;22;20702;-79
2023/12/14 08:42:29;;;;;;;12.93;6.50;;;;;;;;;;6304556;22;20574;-79
2023/12/14 08:44:56;;;;;;;10.27;5.63;;;;;;;;;;6304720;22;20200;-79
2023/12/14 08:47:24;;;;;;;10.43;5.00;;;;;;;;;;6304639;22;20216;-79
2023/12/14 08:49:51;;;;;;;6.33;4.87;;;;;;;;;;6304956;22;20173;-80
2023/12/14 08:52:18;;;;;;;9.03;4.50;;;;;;;;;;6304576;22;20246;-80
2023/12/14 08:54:46;;;;;;;12.00;4.90;;;;;;;;;;6304363;22;20223;-80
2023/12/14 08:57:13;;;;;;;9.43;5.40;;;;;;;;;;6304790;22;20173;-80
2023/12/14 08:59:41;;;;;;;11.63;6.33;;;;;;;;;;6303629;22;20679;-80
2023/12/14 09:02:08;;;;;;;12.70;6.97;;;;;;;;;;6304825;22;20194;-79
2023/12/14 09:04:36;;;;;;;10.90;6.17;;;;;;;;;;6305387;22;20166;-79
2023/12/14 09:07:04;;;;;;;11.90;6.30;;;;;;;;;;6307343;22;20171;-80
2023/12/14 09:09:32;;;;;;;12.83;8.60;;;;;;;;;;6306512;22;20170;-81
2023/12/14 09:11:59;;;;;;;15.37;9.03;;;;;;;;;;6306529;22;20169;-81
2023/12/14 09:14:27;;;;;;;16.70;10.37;;;;;;;;;;6305724;22;20169;-79
2023/12/14 09:16:55;;;;;;;14.03;8.70;;;;;;;;;;6306366;22;20514;-79
2023/12/14 09:19:22;;;;;;;14.37;7.60;;;;;;;;;;6305897;22;20272;-79
2023/12/14 09:21:50;;;;;;;14.10;8.33;;;;;;;;;;6306054;22;20166;-81
2023/12/14 09:24:17;;;;;;;20.20;10.77;;;;;;;;;;6306426;22;20707;-79
2023/12/14 09:26:44;;;;;;;13.20;8.60;;;;;;;;;;6306887;22;20176;-77
2023/12/14 09:29:11;;;;;;;14.47;8.63;;;;;;;;;;6306321;22;20200;-79
2023/12/14 09:31:38;;;;;;;10.10;7.20;;;;;;;;;;6306330;22;20252;-80
2023/12/14 09:34:07;;;;;;;12.83;7.70;;;;;;;;;;6306096;22;20545;-80
2023/12/14 09:36:34;;;;;;;10.50;7.50;;;;;;;;;;6306561;22;20209;-81
2023/12/14 09:39:02;;;;;;;11.97;7.60;;;;;;;;;;6305476;22;20170;-80
2023/12/14 09:41:29;;;;;;;13.20;8.30;;;;;;;;;;6305998;22;20216;-79
2023/12/14 09:43:58;;;;;;;15.97;10.00;;;;;;;;;;6306430;22;20216;-81
2023/12/14 09:46:26;;;;;;;18.50;10.40;;;;;;;;;;6306637;22;20244;-80
2023/12/14 09:48:55;;;;;;;16.60;10.67;;;;;;;;;;6305895;22;20544;-79
2023/12/14 09:51:23;;;;;;;13.67;8.80;;;;;;;;;;6306072;22;20689;-80
2023/12/14 09:53:52;;;;;;;17.53;9.37;;;;;;;;;;6306624;22;20170;-79
2023/12/14 09:56:19;;;;;;;12.97;7.80;;;;;;;;;;6306482;22;20173;-79
2023/12/14 09:58:47;;;;;;;11.93;8.13;;;;;;;;;;6305868;22;20707;-79
2023/12/14 10:01:24;;;;;;;14.17;10.20;;;;;;;;;;6305649;22;20245;-79
2023/12/14 10:03:51;;;;;;;13.97;9.67;;;;;;;;;;6306061;22;20190;-79
2023/12/14 10:06:19;;;;;;;10.03;6.87;;;;;;;;;;6306289;22;20193;-78
2023/12/14 10:08:57;;;;;;;11.67;6.90;;;;;;;;;;6305575;22;20176;-78
2023/12/14 10:11:24;;;;;;;13.07;6.73;;;;;;;;;;6304745;22;20176;-78
2023/12/14 10:13:51;;;;;;;11.00;6.20;;;;;;;;;;6303635;22;20166;-79
2023/12/14 10:16:36;;;;;;;8.97;6.47;;;;;;;;;;6304414;22;20199;-80
2023/12/14 10:19:03;;;;;;;12.37;6.60;;;;;;;;;;6306001;22;20174;-78
2023/12/14 10:21:30;;;;;;;11.10;6.27;;;;;;;;;;6304515;22;20248;-80
2023/12/14 10:24:00;;;;;;;7.80;6.53;;;;;;;;;;6305515;22;20176;-79
2023/12/14 10:26:27;;;;;;;13.13;6.97;;;;;;;;;;6305297;22;20181;-79
2023/12/14 10:28:54;;;;;;;9.17;7.07;;;;;;;;;;6305365;22;20636;-80
2023/12/14 10:31:22;;;;;;;11.67;7.13;;;;;;;;;;6303542;22;20193;-79
2023/12/14 10:33:50;;;;;;;10.60;8.00;;;;;;;;;;6305862;22;20170;-79
2023/12/14 10:36:21;;;;;;;13.07;7.30;;;;;;;;;;6305152;22;20620;-79
2023/12/14 10:38:50;;;;;;;9.67;7.53;;;;;;;;;;6305767;22;20721;-80
2023/12/14 10:41:18;;;;;;;12.37;8.40;;;;;;;;;;6305661;22;20237;-79
2023/12/14 10:43:46;;;;;;;13.70;8.23;;;;;;;;;;6305282;22;20194;-78
2023/12/14 10:46:15;;;;;;;14.03;8.73;;;;;;;;;;6301930;22;20170;-79
2023/12/14 10:48:44;;;;;;;12.80;8.97;;;;;;;;;;6304358;22;20542;-79
2023/12/14 10:51:12;;;;;;;13.87;9.43;;;;;;;;;;6304713;22;20252;-79
2023/12/14 10:53:40;;;;;;;14.40;9.47;;;;;;;;;;6304937;22;20208;-79
2023/12/14 10:56:10;;;;;;;17.80;9.73;;;;;;;;;;6305369;22;20715;-79
2023/12/14 10:58:48;;;;;;;13.33;9.80;;;;;;;;;;6303486;22;20717;-79
2023/12/14 11:01:16;;;;;;;13.23;9.93;;;;;;;;;;6304542;22;20296;-79
2023/12/14 11:03:44;;;;;;;14.00;9.50;;;;;;;;;;6304786;22;20172;-79
2023/12/14 11:06:23;;;;;;;9.93;8.87;;;;;;;;;;6304602;22;20191;-79
2023/12/14 11:08:50;;;;;;;11.80;8.90;;;;;;;;;;6303175;22;20170;-80
2023/12/14 11:11:20;;;;;;;12.57;8.63;;;;;;;;;;6305431;22;20197;-80
2023/12/14 11:13:52;;;;;;;14.60;9.67;;;;;;;;;;6305239;22;20173;-79
2023/12/14 11:16:21;;;;;;;11.40;9.87;;;;;;;;;;6304056;22;20174;-78
2023/12/14 11:18:49;;;;;;;14.17;9.27;;;;;;;;;;6305614;22;20271;-80
2023/12/14 11:21:21;;;;;;;13.20;9.43;;;;;;;;;;6306941;22;20248;-80
2023/12/14 11:23:51;;;;;;;12.63;9.17;;;;;;;;;;6305096;22;20550;-79
2023/12/14 11:26:22;;;;;;;14.17;9.63;;;;;;;;;;6305020;22;20226;-79
2023/12/14 11:28:51;;;;;;;12.63;9.50;;;;;;;;;;6305557;22;20165;-78
2023/12/14 11:31:18;;;;;;;16.27;9.60;;;;;;;;;;6304755;22;20241;-78
2023/12/14 11:33:45;;;;;;;13.07;9.30;;;;;;;;;;6304684;22;20170;-78
2023/12/14 11:36:15;;;;;;;12.03;8.30;;;;;;;;;;6305147;22;20169;-78
2023/12/14 11:38:43;;;;;;;12.57;7.80;;;;;;;;;;6305169;22;20193;-78
2023/12/14 11:41:10;;;;;;;9.70;6.80;;;;;;;;;;6305231;22;20201;-78
2023/12/14 11:43:41;;;;;;;9.63;6.03;;;;;;;;;;6304388;22;20557;-77
2023/12/14 11:46:09;;;;;;;9.90;5.50;;;;;;;;;;6305270;22;20512;-77
2023/12/14 11:48:37;;;;;;;10.80;5.50;;;;;;;;;;6304592;22;20230;-78
2023/12/14 11:51:04;;;;;;;10.57;6.07;;;;;;;;;;6304837;22;20216;-78
2023/12/14 11:53:32;;;;;;;8.30;5.97;;;;;;;;;;6305012;22;20501;-77
2023/12/14 11:56:02;;;;;;;11.00;5.80;;;;;;;;;;6305162;22;20170;-77
2023/12/14 11:58:29;;;;;;;12.97;5.10;;;;;;;;;;6304049;22;20632;-78
2023/12/14 12:00:56;;;;;;;13.27;5.50;;;;;;;;;;6304697;22;20710;-77
2023/12/14 12:03:25;;;;;;;13.27;5.03;;;;;;;;;;6304466;22;20625;-79
2023/12/14 12:05:53;;;;;;;11.77;5.50;;;;;;;;;;6303857;22;20172;-79
2023/12/14 12:08:22;;;;;;;12.17;6.60;;;;;;;;;;6286297;22;20201;-80
2023/12/14 12:10:50;;;;;;;12.70;6.23;;;;;;;;;;6299515;22;20197;-81
2023/12/14 12:13:18;;;;;;;13.27;6.07;;;;;;;;;;6297463;22;20165;-81
2023/12/14 12:15:45;;;;;;;8.90;5.37;;;;;;;;;;6297765;22;20254;-81
2023/12/14 12:18:13;;;;;;;13.27;5.30;;;;;;;;;;6299771;22;20720;-80
2023/12/14 12:20:41;;;;;;;12.47;5.40;;;;;;;;;;6299584;22;20207;-81
2023/12/14 12:23:09;;;;;;;9.97;5.93;;;;;;;;;;6300386;22;20691;-80
2023/12/14 12:25:36;;;;;;;9.33;5.50;;;;;;;;;;6299173;22;20546;-80
2023/12/14 12:28:04;;;;;;;9.30;4.97;;;;;;;;;;6299692;22;20229;-79
2023/12/14 12:30:32;;;;;;;10.33;5.47;;;;;;;;;;6298448;22;20737;-80
2023/12/14 12:32:59;;;;;;;7.53;5.23;;;;;;;;;;6297805;22;20248;-80
2023/12/14 12:35:26;;;;;;;8.40;5.40;;;;;;;;;;6300244;22;20201;-80
2023/12/14 12:37:55;;;;;;;10.93;6.50;;;;;;;;;;6299638;22;20204;-81
2023/12/14 12:40:22;;;;;;;11.10;6.00;;;;;;;;;;6300799;22;20208;-80
2023/12/14 12:42:49;;;;;;;11.67;6.13;;;;;;;;;;6302316;22;20237;-80
2023/12/14 12:45:17;;;;;;;10.00;5.90;;;;;;;;;;6301449;22;20201;-79
2023/12/14 12:47:45;;;;;;;12.20;5.57;;;;;;;;;;6303295;22;20173;-80
2023/12/14 12:50:12;;;;;;;10.13;5.17;;;;;;;;;;6301847;22;20691;-81
2023/12/14 12:52:42;;;;;;;7.03;5.27;;;;;;;;;;6296280;22;20172;-81
2023/12/14 12:55:11;;;;;;;12.03;5.60;;;;;;;;;;6303583;22;20170;-81
2023/12/14 12:57:38;;;;;;;10.53;5.93;;;;;;;;;;6305952;22;20180;-80
2023/12/14 13:00:10;;;;;;;13.23;6.27;;;;;;;;;;6305718;22;20208;-81
2023/12/14 13:02:38;;;;;;;11.03;4.87;;;;;;;;;;6304974;22;20170;-80
2023/12/14 13:05:06;;;;;;;9.83;5.00;;;;;;;;;;6306459;22;20261;-81
2023/12/14 13:07:33;;;;;;;7.43;4.80;;;;;;;;;;6305694;22;20170;-81
2023/12/14 13:10:00;;;;;;;10.90;4.50;;;;;;;;;;6306471;22;20204;-81
2023/12/14 13:12:29;;;;;;;11.20;4.53;;;;;;;;;;6305728;22;20202;-81
2023/12/14 13:14:56;;;;;;;9.53;4.80;;;;;;;;;;6305592;22;20512;-79
2023/12/14 13:17:23;;;;;;;9.60;4.93;;;;;;;;;;6306710;22;20173;-80
2023/12/14 13:19:50;;;;;;;9.47;4.80;;;;;;;;;;6305970;22;20232;-79
2023/12/14 13:22:18;;;;;;;11.07;5.37;;;;;;;;;;6305099;22;20531;-81
2023/12/14 13:24:45;;;;;;;7.80;4.80;;;;;;;;;;6305806;22;20555;-80
2023/12/14 13:27:12;;;;;;;10.20;5.67;;;;;;;;;;6306196;22;20177;-81
2023/12/14 13:29:40;;;;;;;13.43;7.20;;;;;;;;;;6306452;22;20268;-81
2023/12/14 13:32:08;;;;;;;12.80;5.57;;;;;;;;;;6305840;22;20563;-81
2023/12/14 13:34:35;;;;;;;8.47;5.30;;;;;;;;;;6305914;22;20198;-81
2023/12/14 13:37:03;;;;;;;12.30;5.93;;;;;;;;;;6306087;22;20231;-80
2023/12/14 13:39:30;;;;;;;11.70;5.10;;;;;;;;;;6305831;22;20174;-80
2023/12/14 13:41:57;;;;;;;11.27;5.57;;;;;;;;;;6305851;22;20201;-80
2023/12/14 13:44:24;;;;;;;9.17;4.50;;;;;;;;;;6305980;22;20258;-80
2023/12/14 13:46:53;;;;;;;9.37;4.93;;;;;;;;;;6306366;22;20181;-80
2023/12/14 13:49:20;;;;;;;12.40;4.93;;;;;;;;;;6305995;22;20529;-80
2023/12/14 13:51:47;;;;;;;10.13;4.90;;;;;;;;;;6306368;22;20174;-79
2023/12/14 13:54:14;;;;;;;13.70;5.10;;;;;;;;;;6305137;22;20941;-79
2023/12/14 13:56:41;;;;;;;10.57;4.77;;;;;;;;;;6306038;22;20734;-80
2023/12/14 13:59:09;;;;;;;11.90;5.00;;;;;;;;;;6305363;22;20253;-79
2023/12/14 14:01:36;;;;;;;6.40;4.30;;;;;;;;;;6305861;22;20236;-79
2023/12/14 14:04:04;;;;;;;9.57;4.27;;;;;;;;;;6306072;22;20215;-80
2023/12/14 14:06:32;;;;;;;10.07;5.23;;;;;;;;;;6305906;22;20554;-79
2023/12/14 14:08:59;;;;;;;11.30;4.80;;;;;;;;;;6305077;22;20259;-78
2023/12/14 14:11:26;;;;;;;10.80;5.03;;;;;;;;;;6306022;22;20193;-79
2023/12/14 14:13:53;;;;;;;8.63;4.53;;;;;;;;;;6305615;22;20758;-79
2023/12/14 14:16:21;;;;;;;10.00;3.80;;;;;;;;;;6305639;22;20201;-79
2023/12/14 14:18:48;;;;;;;12.27;4.17;;;;;;;;;;6305892;22;20166;-80
2023/12/14 14:21:16;;;;;;;8.93;4.23;;;;;;;;;;6305316;22;20614;-79
2023/12/14 14:23:44;;;;;;;16.50;5.20;;;;;;;;;;6304877;22;20170;-79
2023/12/14 14:26:11;;;;;;;17.33;6.63;;;;;;;;;;6305166;22;20172;-79
2023/12/14 14:28:38;;;;;;;12.80;5.80;;;;;;;;;;6305467;22;20248;-79
2023/12/14 14:31:05;;;;;;;10.43;4.83;;;;;;;;;;6305449;22;20552;-80
2023/12/14 14:33:33;;;;;;;11.27;5.00;;;;;;;;;;6305829;22;20193;-79
2023/12/14 14:36:04;;;;;;;9.57;5.37;;;;;;;;;;6305685;22;20564;-79
2023/12/14 14:38:33;;;;;;;12.33;6.13;;;;;;;;;;6305243;22;20600;-79
2023/12/14 14:41:00;;;;;;;14.73;7.07;;;;;;;;;;6305341;22;20194;-79